Time;durP1;ratioP1;P1;durP2;ratioP2;P2;SDS_P1;SDS_P2;PMS_P1;PMS_P2;Temp;Humidity;BMP_temperature;BMP_pressure;BME280_temperature;BME280_humidity;BME280_pressure;Samples;Min_cycle;Max_cycle;Signal;HPM_P1;HPM_P2
2022/12/27 00:00:03;;;;;;;3.77;1.40;;;5.80;99.90;;;;;;4990501;28;20811;-73
2022/12/27 00:02:31;;;;;;;4.23;1.67;;;5.80;99.90;;;;;;4990299;28;20206;-72
2022/12/27 00:04:58;;;;;;;6.83;1.57;;;5.80;99.90;;;;;;4990245;28;20214;-73
2022/12/27 00:07:25;;;;;;;3.00;1.30;;;5.70;99.90;;;;;;4989090;28;20229;-72
2022/12/27 00:09:54;;;;;;;7.20;1.77;;;5.70;99.90;;;;;;4990562;28;20213;-72
2022/12/27 00:12:21;;;;;;;4.40;1.23;;;5.70;99.90;;;;;;4989831;28;20306;-72
2022/12/27 00:14:48;;;;;;;3.87;1.20;;;5.70;99.90;;;;;;4990069;28;20248;-72
2022/12/27 00:17:15;;;;;;;4.43;1.60;;;5.70;99.90;;;;;;4971484;28;20301;-72
2022/12/27 00:19:42;;;;;;;3.57;1.10;;;5.60;99.90;;;;;;4985749;28;21073;-72
2022/12/27 00:22:09;;;;;;;5.07;1.57;;;5.60;99.90;;;;;;4990136;28;20297;-72
2022/12/27 00:24:36;;;;;;;7.50;2.17;;;5.60;99.90;;;;;;4988749;28;20214;-72
2022/12/27 00:27:04;;;;;;;7.93;2.17;;;5.60;99.90;;;;;;5000284;28;20206;-72
2022/12/27 00:29:31;;;;;;;3.23;1.33;;;5.60;99.90;;;;;;4988096;28;20210;-72
2022/12/27 00:31:58;;;;;;;4.87;1.33;;;5.50;99.90;;;;;;4990139;28;20313;-72
2022/12/27 00:34:25;;;;;;;5.00;1.63;;;5.40;99.90;;;;;;4989797;28;20616;-73
2022/12/27 00:36:51;;;;;;;2.97;1.43;;;5.40;99.90;;;;;;4989893;28;20210;-75
2022/12/27 00:39:18;;;;;;;5.67;1.60;;;5.30;99.90;;;;;;4990367;28;20320;-74
2022/12/27 00:41:45;;;;;;;6.57;1.50;;;5.40;99.90;;;;;;4989758;28;20218;-74
2022/12/27 00:44:14;;;;;;;3.77;1.40;;;5.30;99.90;;;;;;4990028;28;20623;-74
2022/12/27 00:46:40;;;;;;;5.57;1.47;;;5.20;99.90;;;;;;4989731;28;20752;-74
2022/12/27 00:49:07;;;;;;;6.07;1.40;;;5.20;99.90;;;;;;4989592;28;20293;-74
2022/12/27 00:51:34;;;;;;;4.70;1.50;;;5.20;99.90;;;;;;4989834;28;20289;-74
2022/12/27 00:54:01;;;;;;;2.97;1.33;;;5.10;99.90;;;;;;4990027;28;20297;-74
2022/12/27 00:56:30;;;;;;;3.97;1.60;;;5.10;99.90;;;;;;4989667;28;20293;-74
2022/12/27 00:58:59;;;;;;;10.63;1.73;;;5.00;99.90;;;;;;4989738;28;20293;-74
2022/12/27 01:01:30;;;;;;;4.40;1.27;;;5.00;99.90;;;;;;4989405;28;20217;-74
2022/12/27 01:03:57;;;;;;;4.53;1.90;;;5.00;99.90;;;;;;4989515;28;20628;-73
2022/12/27 01:06:27;;;;;;;3.13;1.23;;;4.90;99.90;;;;;;4989727;28;20709;-73
2022/12/27 01:08:54;;;;;;;6.07;1.90;;;5.00;99.90;;;;;;4996654;28;20628;-73
2022/12/27 01:11:22;;;;;;;6.03;1.60;;;4.80;99.90;;;;;;4999767;28;20845;-73
2022/12/27 01:13:49;;;;;;;5.67;1.60;;;4.80;99.90;;;;;;4989372;28;20446;-72
2022/12/27 01:16:18;;;;;;;3.57;1.40;;;4.80;99.90;;;;;;4982205;28;20301;-73
2022/12/27 01:18:47;;;;;;;4.40;1.30;;;4.70;99.90;;;;;;4989212;28;20308;-73
2022/12/27 01:21:15;;;;;;;4.17;1.20;;;4.70;99.90;;;;;;4989505;28;20329;-72
2022/12/27 01:23:43;;;;;;;3.30;1.50;;;4.70;99.90;;;;;;4989293;28;20289;-72
2022/12/27 01:26:13;;;;;;;5.50;1.53;;;4.60;99.90;;;;;;4989234;28;20248;-73
2022/12/27 01:28:39;;;;;;;8.13;1.70;;;4.70;99.90;;;;;;4989424;28;20572;-73
2022/12/27 01:31:08;;;;;;;4.03;1.50;;;4.60;99.90;;;;;;4989208;28;20220;-73
2022/12/27 01:33:35;;;;;;;4.93;1.70;;;4.60;99.90;;;;;;4988832;28;20319;-73
2022/12/27 01:36:10;;;;;;;5.07;1.57;;;4.60;99.90;;;;;;4988591;28;20692;-73
2022/12/27 01:38:37;;;;;;;4.50;1.30;;;4.70;99.90;;;;;;4988541;28;20292;-73
2022/12/27 01:42:50;;;;;;;5.77;1.60;;;4.60;99.90;;;;;;4988954;28;20607;-73
2022/12/27 01:43:50;;;;;;;3.10;1.40;;;4.60;99.90;;;;;;4988705;28;20202;-73
2022/12/27 01:46:18;;;;;;;7.50;1.53;;;4.60;99.90;;;;;;4977424;28;20229;-72
2022/12/27 01:48:45;;;;;;;7.43;1.50;;;4.50;99.90;;;;;;4969345;28;20206;-72
2022/12/27 01:51:14;;;;;;;4.57;1.57;;;4.50;99.90;;;;;;4969247;28;20214;-72
2022/12/27 01:53:44;;;;;;;3.77;1.40;;;4.40;99.90;;;;;;4969368;28;20213;-72
2022/12/27 01:56:16;;;;;;;6.03;1.53;;;4.40;99.90;;;;;;4977372;28;20297;-72
2022/12/27 01:58:48;;;;;;;2.33;1.23;;;4.40;99.90;;;;;;4988523;28;20288;-72
2022/12/27 02:01:21;;;;;;;9.97;1.73;;;4.30;99.90;;;;;;4988309;28;20244;-72
2022/12/27 02:03:53;;;;;;;6.30;2.00;;;4.20;99.90;;;;;;4988302;28;20201;-71
2022/12/27 02:06:23;;;;;;;8.27;1.93;;;4.20;99.90;;;;;;4988285;28;20293;-72
2022/12/27 02:08:56;;;;;;;3.93;1.70;;;4.20;99.90;;;;;;4988176;28;20719;-72
2022/12/27 02:14:08;;;;;;;6.13;1.30;;;4.20;99.90;;;;;;4986918;28;20300;-71
2022/12/27 02:16:34;;;;;;;6.37;1.40;;;4.10;99.90;;;;;;4988325;28;20217;-71
2022/12/27 02:19:01;;;;;;;4.27;1.33;;;4.10;99.90;;;;;;4989852;28;20788;-72
2022/12/27 02:22:04;;;;;;;4.17;1.60;;;4.00;99.90;;;;;;5007866;28;20860;-72
2022/12/27 02:24:51;;;;;;;6.83;1.50;;;4.00;99.90;;;;;;5007571;28;20691;-72
2022/12/27 02:27:35;;;;;;;5.43;1.80;;;4.10;99.90;;;;;;5007612;28;20268;-72
2022/12/27 02:30:07;;;;;;;5.70;1.53;;;4.00;99.90;;;;;;4968691;28;20293;-72
2022/12/27 02:32:39;;;;;;;4.30;1.30;;;4.00;99.90;;;;;;4968762;28;20206;-72
2022/12/27 02:35:12;;;;;;;3.13;1.60;;;4.00;99.90;;;;;;4968539;28;20230;-72
2022/12/27 02:37:44;;;;;;;5.27;1.30;;;4.00;99.90;;;;;;4968650;28;20314;-72
2022/12/27 02:54:54;;;;;;;6.67;1.53;;;3.90;99.90;;;;;;4991714;28;20245;-72
2022/12/27 02:57:29;;;;;;;3.97;1.60;;;3.90;99.90;;;;;;4981224;28;20226;-72
2022/12/27 03:03:22;;;;;;;3.83;1.60;;;4.00;99.90;;;;;;4991340;28;20239;-72
2022/12/27 03:09:02;;;;;;;4.33;1.50;;;3.90;99.90;;;;;;4991656;28;20201;-70
2022/12/27 03:17:25;;;;;;;5.23;1.37;;;3.90;99.90;;;;;;4991044;28;20229;-69
2022/12/27 03:25:31;;;;;;;7.60;2.27;;;3.80;99.90;;;;;;4990534;28;20636;-71
2022/12/27 03:33:39;;;;;;;2.90;1.40;;;3.80;99.90;;;;;;4990675;28;20205;-70
2022/12/27 03:39:05;;;;;;;6.90;1.50;;;3.80;99.90;;;;;;4991220;28;20975;-71
2022/12/27 03:44:24;;;;;;;4.37;1.77;;;3.90;99.90;;;;;;4990945;28;20193;-71
2022/12/27 03:46:54;;;;;;;5.83;1.70;;;3.90;99.90;;;;;;4990641;28;20222;-71
2022/12/27 03:49:24;;;;;;;1.90;1.27;;;3.90;99.90;;;;;;4990883;28;20202;-71
2022/12/27 03:52:01;;;;;;;7.60;1.40;;;3.90;99.90;;;;;;4990825;28;20221;-71
2022/12/27 03:54:32;;;;;;;5.40;1.30;;;3.90;99.90;;;;;;4990900;28;20292;-71
2022/12/27 03:57:02;;;;;;;4.30;1.20;;;3.90;99.90;;;;;;4990755;28;20293;-71
2022/12/27 03:59:29;;;;;;;4.77;1.67;;;3.80;99.90;;;;;;4990768;28;20229;-71
2022/12/27 04:01:57;;;;;;;2.80;1.80;;;3.90;99.90;;;;;;4990948;28;20320;-71
2022/12/27 04:04:24;;;;;;;3.33;1.60;;;3.90;99.90;;;;;;4990349;28;20679;-71
2022/12/27 04:06:51;;;;;;;5.40;1.57;;;3.90;99.90;;;;;;4990620;28;20230;-70
2022/12/27 04:36:44;;;;;;;5.40;1.60;;;3.80;99.90;;;;;;4970283;28;20246;-69
2022/12/27 04:39:11;;;;;;;3.50;1.73;;;3.90;99.90;;;;;;4970783;28;20341;-69
2022/12/27 04:55:45;;;;;;;6.37;1.80;;;4.00;99.90;;;;;;4989206;28;20262;-70
2022/12/27 04:58:13;;;;;;;3.63;1.83;;;3.90;99.90;;;;;;4989712;28;20631;-70
2022/12/27 05:03:25;;;;;;;5.13;1.73;;;3.90;99.90;;;;;;4989319;28;20252;-70
2022/12/27 05:05:52;;;;;;;7.73;1.70;;;3.90;99.90;;;;;;4989130;28;20305;-70
2022/12/27 05:14:00;;;;;;;4.77;1.80;;;3.90;99.90;;;;;;4989181;28;20310;-70
2022/12/27 05:16:27;;;;;;;5.50;1.50;;;3.90;99.90;;;;;;4989371;28;20224;-70
2022/12/27 05:18:54;;;;;;;2.97;1.83;;;3.90;99.90;;;;;;4989307;28;20210;-70
2022/12/27 05:21:24;;;;;;;3.70;1.30;;;3.90;99.90;;;;;;4989112;28;20329;-70
2022/12/27 05:26:37;;;;;;;3.80;1.73;;;3.90;99.90;;;;;;4988867;28;20193;-70
2022/12/27 05:29:06;;;;;;;4.97;1.63;;;3.90;99.90;;;;;;4988757;28;20206;-70
2022/12/27 05:31:33;;;;;;;3.00;1.43;;;4.00;99.90;;;;;;4988850;28;20292;-70
2022/12/27 05:34:00;;;;;;;3.07;1.77;;;3.90;99.90;;;;;;4988287;28;20966;-70
2022/12/27 05:36:27;;;;;;;3.73;1.57;;;4.00;99.90;;;;;;4988599;28;20234;-70
2022/12/27 05:38:54;;;;;;;3.60;1.37;;;4.10;99.90;;;;;;4988690;28;20680;-69
2022/12/27 05:41:21;;;;;;;4.63;1.33;;;4.10;99.90;;;;;;4988850;28;20321;-70
2022/12/27 05:43:48;;;;;;;6.67;2.13;;;4.10;99.90;;;;;;4988214;28;20214;-70
2022/12/27 05:46:18;;;;;;;6.73;1.20;;;4.10;99.90;;;;;;4988455;28;20210;-70
2022/12/27 05:48:46;;;;;;;2.10;1.33;;;4.10;99.90;;;;;;4988536;28;20241;-70
2022/12/27 05:51:15;;;;;;;3.00;1.33;;;4.10;99.90;;;;;;4988775;28;20206;-70
2022/12/27 05:53:42;;;;;;;4.83;1.33;;;4.10;99.90;;;;;;4971196;28;20314;-70
2022/12/27 05:56:11;;;;;;;2.77;1.30;;;4.10;99.90;;;;;;4976847;28;20293;-70
2022/12/27 05:58:38;;;;;;;3.30;1.27;;;4.10;99.90;;;;;;4988173;28;20292;-70
2022/12/27 06:01:08;;;;;;;3.07;1.30;;;4.10;99.90;;;;;;4988422;28;20380;-70
2022/12/27 06:03:37;;;;;;;3.30;1.23;;;4.10;99.90;;;;;;4987875;28;20288;-70
2022/12/27 06:06:05;;;;;;;2.43;1.00;;;4.10;99.90;;;;;;4988230;28;20245;-70
2022/12/27 06:08:32;;;;;;;4.10;1.30;;;4.20;99.90;;;;;;4987891;28;20305;-71
2022/12/27 06:11:05;;;;;;;4.23;1.10;;;4.10;99.90;;;;;;4988310;28;20237;-70
2022/12/27 06:13:32;;;;;;;3.23;1.43;;;4.10;99.90;;;;;;4988539;28;20209;-71
2022/12/27 06:16:01;;;;;;;7.00;1.73;;;4.10;99.90;;;;;;4979901;28;20297;-70
2022/12/27 06:18:29;;;;;;;3.87;1.30;;;4.10;99.90;;;;;;4968580;28;20681;-70
2022/12/27 06:21:02;;;;;;;5.90;1.30;;;4.10;99.90;;;;;;4968380;28;20694;-70
2022/12/27 06:23:29;;;;;;;6.43;1.53;;;4.10;99.90;;;;;;4967476;28;20616;-70
2022/12/27 06:25:56;;;;;;;4.53;1.70;;;4.10;99.90;;;;;;4968841;28;20583;-70
2022/12/27 06:28:23;;;;;;;2.90;1.17;;;4.10;99.90;;;;;;4968964;28;20635;-70
2022/12/27 06:30:50;;;;;;;2.57;1.33;;;4.00;99.90;;;;;;4968389;28;20215;-71
2022/12/27 06:33:17;;;;;;;4.83;1.10;;;4.00;99.90;;;;;;4968705;28;20297;-70
2022/12/27 06:35:44;;;;;;;3.27;1.40;;;4.00;99.90;;;;;;4968405;28;20303;-70
2022/12/27 06:38:12;;;;;;;3.23;1.17;;;4.10;99.90;;;;;;4968709;28;20687;-71
2022/12/27 06:40:39;;;;;;;3.17;1.13;;;4.10;99.90;;;;;;4971173;28;20320;-71
2022/12/27 06:43:06;;;;;;;4.73;1.07;;;4.10;99.90;;;;;;4988316;28;20642;-71
2022/12/27 06:45:33;;;;;;;3.93;1.00;;;4.10;99.90;;;;;;4988057;28;20297;-71
2022/12/27 06:47:59;;;;;;;2.77;1.70;;;4.10;99.90;;;;;;4987601;28;20664;-71
2022/12/27 06:50:26;;;;;;;1.47;1.17;;;4.20;99.90;;;;;;4987781;28;20295;-72
2022/12/27 06:52:53;;;;;;;5.77;1.23;;;4.20;99.90;;;;;;4987679;28;20206;-71
2022/12/27 06:55:22;;;;;;;2.73;1.10;;;4.10;99.90;;;;;;4987583;28;20793;-71
2022/12/27 06:57:50;;;;;;;3.53;1.23;;;4.20;99.90;;;;;;4988120;28;20299;-72
2022/12/27 07:00:19;;;;;;;3.57;1.10;;;4.20;99.90;;;;;;4978223;28;20211;-72
2022/12/27 07:02:46;;;;;;;4.57;1.20;;;4.20;99.90;;;;;;4968667;28;20297;-72
2022/12/27 07:05:13;;;;;;;1.53;1.10;;;4.10;99.90;;;;;;4968600;28;20214;-72
2022/12/27 07:07:40;;;;;;;2.23;1.60;;;4.10;99.90;;;;;;4968301;28;20317;-71
2022/12/27 07:10:07;;;;;;;2.50;1.40;;;4.10;99.90;;;;;;4978717;28;20218;-71
2022/12/27 07:12:36;;;;;;;5.73;2.20;;;4.00;99.90;;;;;;4987352;28;20281;-71
2022/12/27 07:15:03;;;;;;;2.80;1.30;;;4.00;99.90;;;;;;4988172;28;20218;-71
2022/12/27 07:17:30;;;;;;;4.77;1.60;;;4.00;99.90;;;;;;4987762;28;20241;-71
2022/12/27 07:19:57;;;;;;;2.70;1.53;;;4.00;99.90;;;;;;4987819;28;20305;-71
2022/12/27 07:22:24;;;;;;;2.93;1.13;;;4.00;99.90;;;;;;4987673;28;20321;-71
2022/12/27 07:24:51;;;;;;;2.10;1.33;;;4.10;99.90;;;;;;4987679;28;20293;-71
2022/12/27 07:27:18;;;;;;;4.00;1.20;;;4.10;99.90;;;;;;4987955;28;20294;-72
2022/12/27 07:29:46;;;;;;;4.53;1.30;;;4.10;99.90;;;;;;4987555;28;20218;-71
2022/12/27 07:32:13;;;;;;;4.03;1.37;;;4.10;99.90;;;;;;4987470;28;20320;-72
2022/12/27 07:34:40;;;;;;;3.57;1.20;;;4.00;99.90;;;;;;4989319;28;20206;-72
2022/12/27 07:37:07;;;;;;;3.60;1.13;;;4.00;99.90;;;;;;4990261;28;20203;-72
2022/12/27 07:39:34;;;;;;;4.93;1.87;;;4.00;99.90;;;;;;4991572;28;20240;-72
2022/12/27 07:42:01;;;;;;;2.27;1.40;;;4.00;99.90;;;;;;4990966;28;20592;-72
2022/12/27 07:44:28;;;;;;;2.70;1.33;;;4.00;99.90;;;;;;4991002;28;20289;-73
2022/12/27 07:46:56;;;;;;;3.70;1.50;;;4.00;99.90;;;;;;4991138;28;20222;-72
2022/12/27 07:49:23;;;;;;;2.93;1.57;;;4.00;99.90;;;;;;4990853;28;20321;-72
2022/12/27 07:51:50;;;;;;;3.47;1.50;;;4.00;99.90;;;;;;4990999;28;20214;-72
2022/12/27 07:54:17;;;;;;;3.37;1.40;;;4.00;99.90;;;;;;4990903;28;20241;-72
2022/12/27 07:56:44;;;;;;;1.80;1.33;;;4.00;99.90;;;;;;4990590;28;20299;-72
2022/12/27 07:59:12;;;;;;;4.57;1.27;;;4.10;99.90;;;;;;4990455;28;20298;-72
2022/12/27 08:04:25;;;;;;;3.00;1.47;;;4.00;99.90;;;;;;4990025;28;20210;-72
2022/12/27 08:06:52;;;;;;;1.43;1.00;;;4.10;99.90;;;;;;4990581;28;20254;-72
2022/12/27 08:09:26;;;;;;;3.67;1.33;;;4.10;99.90;;;;;;4990602;28;20214;-72
2022/12/27 08:11:52;;;;;;;2.40;1.20;;;4.10;99.90;;;;;;4990279;28;20345;-71
2022/12/27 08:14:20;;;;;;;6.30;1.73;;;4.10;99.90;;;;;;4990606;28;20246;-72
2022/12/27 08:16:47;;;;;;;2.83;1.60;;;4.10;99.90;;;;;;4990776;28;20300;-72
2022/12/27 08:19:14;;;;;;;2.80;1.63;;;4.10;99.90;;;;;;4990604;28;20313;-71
2022/12/27 08:21:42;;;;;;;7.30;2.10;;;4.20;99.90;;;;;;4990252;28;20240;-71
2022/12/27 08:24:09;;;;;;;3.50;1.53;;;4.20;99.90;;;;;;4990490;28;20321;-72
2022/12/27 08:26:36;;;;;;;2.97;1.60;;;4.20;99.90;;;;;;4989788;28;20252;-72
2022/12/27 08:29:02;;;;;;;4.47;1.53;;;4.20;99.90;;;;;;4989920;28;20225;-72
2022/12/27 08:31:29;;;;;;;6.37;1.70;;;4.20;99.90;;;;;;4989917;28;20308;-72
2022/12/27 08:33:57;;;;;;;4.40;1.93;;;4.30;99.90;;;;;;4989165;28;20210;-72
2022/12/27 08:36:24;;;;;;;3.80;1.90;;;4.30;99.90;;;;;;4990382;28;20290;-72
2022/12/27 08:38:55;;;;;;;2.63;1.40;;;4.30;99.90;;;;;;4989942;28;20305;-72
2022/12/27 08:41:22;;;;;;;2.83;1.77;;;4.30;99.90;;;;;;4990361;28;20309;-72
2022/12/27 08:43:49;;;;;;;3.90;1.80;;;4.30;99.90;;;;;;4990237;28;20249;-72
2022/12/27 08:46:17;;;;;;;3.13;1.70;;;4.40;99.90;;;;;;4989003;28;20300;-72
2022/12/27 08:48:46;;;;;;;3.90;1.70;;;4.40;99.90;;;;;;4989593;28;20653;-72
2022/12/27 08:51:13;;;;;;;4.27;1.60;;;4.40;99.90;;;;;;4989809;28;20674;-72
2022/12/27 08:53:40;;;;;;;2.70;1.50;;;4.40;99.90;;;;;;4989589;28;20818;-72
2022/12/27 08:56:08;;;;;;;5.83;1.77;;;4.40;99.90;;;;;;4989822;28;20255;-72
2022/12/27 08:58:35;;;;;;;4.03;1.80;;;4.50;99.90;;;;;;4989546;28;20695;-72
2022/12/27 09:01:06;;;;;;;3.00;1.40;;;4.60;99.90;;;;;;4989900;28;20746;-72
2022/12/27 09:03:33;;;;;;;1.87;1.30;;;4.50;99.90;;;;;;4983691;28;20309;-72
2022/12/27 09:06:10;;;;;;;5.13;1.70;;;4.60;99.90;;;;;;4981412;28;20222;-72
2022/12/27 09:08:38;;;;;;;3.93;1.50;;;4.60;99.90;;;;;;4976779;28;20293;-72
2022/12/27 09:11:12;;;;;;;3.97;1.50;;;4.70;99.90;;;;;;4977922;28;20757;-72
2022/12/27 09:13:40;;;;;;;3.70;1.60;;;4.70;99.90;;;;;;4987461;28;20295;-71
2022/12/27 09:16:09;;;;;;;6.07;1.70;;;4.70;99.90;;;;;;4987236;28;20672;-71
2022/12/27 09:18:36;;;;;;;2.20;1.30;;;4.70;99.90;;;;;;4987307;28;20209;-71
2022/12/27 09:21:06;;;;;;;3.27;1.73;;;4.70;99.90;;;;;;4987290;28;20214;-71
2022/12/27 09:23:33;;;;;;;3.00;1.67;;;4.80;99.90;;;;;;4986963;28;20337;-71
2022/12/27 09:26:04;;;;;;;3.67;1.43;;;4.80;99.90;;;;;;4987362;28;20409;-71
2022/12/27 09:28:32;;;;;;;3.23;1.50;;;4.80;99.90;;;;;;4987295;28;20672;-71
2022/12/27 09:30:59;;;;;;;5.03;1.63;;;4.80;99.90;;;;;;4998549;28;20205;-71
2022/12/27 09:33:27;;;;;;;3.43;1.57;;;4.90;99.90;;;;;;5006636;28;20566;-71
2022/12/27 09:36:00;;;;;;;4.30;1.43;;;4.90;99.90;;;;;;5006625;28;20684;-72
2022/12/27 09:38:27;;;;;;;2.00;1.37;;;5.00;99.90;;;;;;4990414;28;20955;-71
2022/12/27 09:40:56;;;;;;;3.97;1.70;;;5.10;99.90;;;;;;4986588;28;20281;-71
2022/12/27 09:43:31;;;;;;;8.33;2.37;;;5.10;99.90;;;;;;4986274;28;20329;-72
2022/12/27 09:46:01;;;;;;;2.27;1.97;;;5.20;99.90;;;;;;4978375;28;20241;-72
2022/12/27 09:48:32;;;;;;;2.47;1.43;;;5.20;99.90;;;;;;4967270;28;20246;-72
2022/12/27 09:51:03;;;;;;;1.60;1.50;;;5.20;99.90;;;;;;4967422;28;20207;-72
2022/12/27 09:53:39;;;;;;;5.23;1.60;;;5.20;99.90;;;;;;4967895;28;20506;-75
2022/12/27 09:56:08;;;;;;;1.93;1.23;;;5.30;99.90;;;;;;4967686;28;20288;-71
2022/12/27 09:58:41;;;;;;;3.73;1.70;;;5.30;99.90;;;;;;4975777;28;20210;-72
2022/12/27 10:01:20;;;;;;;5.87;1.87;;;5.40;99.90;;;;;;4987180;28;20205;-72
2022/12/27 10:03:48;;;;;;;3.53;1.70;;;5.40;99.90;;;;;;4986716;28;20230;-72
2022/12/27 10:06:30;;;;;;;7.30;1.80;;;5.50;99.90;;;;;;4998087;28;20229;-72
2022/12/27 10:09:03;;;;;;;3.10;1.57;;;5.40;99.90;;;;;;5006705;28;20300;-73
2022/12/27 10:11:37;;;;;;;4.87;2.00;;;5.50;99.90;;;;;;5006248;28;20765;-72
2022/12/27 10:14:18;;;;;;;3.47;2.07;;;5.60;99.90;;;;;;4987265;28;20249;-72
2022/12/27 10:16:54;;;;;;;2.03;1.53;;;5.60;99.90;;;;;;4986594;28;20220;-72
2022/12/27 10:19:29;;;;;;;2.53;1.57;;;5.60;99.90;;;;;;4986520;28;20212;-72
2022/12/27 10:22:06;;;;;;;1.83;1.73;;;5.50;99.90;;;;;;4986802;28;20324;-72
2022/12/27 10:24:40;;;;;;;6.27;1.97;;;5.50;99.90;;;;;;4986303;28;20293;-72
2022/12/27 10:27:14;;;;;;;2.00;1.57;;;5.50;99.90;;;;;;4986340;28;20222;-72
2022/12/27 10:29:42;;;;;;;2.70;1.77;;;5.60;99.90;;;;;;4986415;28;20656;-72
2022/12/27 10:32:13;;;;;;;3.60;1.93;;;5.60;99.90;;;;;;4985537;28;20264;-71
2022/12/27 10:34:40;;;;;;;2.40;1.60;;;5.60;99.90;;;;;;4986278;28;20202;-71
2022/12/27 10:37:13;;;;;;;2.37;1.77;;;5.50;99.90;;;;;;4985866;28;20209;-72
2022/12/27 10:39:40;;;;;;;5.07;1.90;;;5.50;99.90;;;;;;4987544;28;20698;-71
2022/12/27 10:42:17;;;;;;;6.70;1.93;;;5.50;99.90;;;;;;4988059;28;20261;-72
2022/12/27 10:44:44;;;;;;;3.43;1.80;;;5.50;99.90;;;;;;4987813;28;20934;-71
2022/12/27 10:47:13;;;;;;;4.67;1.93;;;5.50;99.90;;;;;;4988424;28;20643;-71
2022/12/27 10:50:00;;;;;;;5.07;1.83;;;5.50;99.90;;;;;;4982831;28;20301;-71
2022/12/27 10:52:31;;;;;;;3.20;2.17;;;5.60;99.90;;;;;;4978839;28;20264;-71
2022/12/27 10:54:58;;;;;;;6.90;2.10;;;5.60;99.90;;;;;;4987147;28;20198;-71
2022/12/27 10:57:27;;;;;;;2.97;1.87;;;5.70;99.90;;;;;;4987993;28;21035;-71
2022/12/27 11:00:16;;;;;;;2.50;1.80;;;5.70;99.90;;;;;;4987057;28;20843;-71
2022/12/27 11:02:51;;;;;;;2.87;1.93;;;5.80;99.90;;;;;;4987356;28;20265;-71
2022/12/27 11:05:25;;;;;;;7.53;1.90;;;5.80;99.90;;;;;;4980066;28;20284;-72
2022/12/27 11:07:52;;;;;;;6.93;2.20;;;5.80;99.90;;;;;;4971353;28;20669;-70
2022/12/27 11:10:21;;;;;;;3.77;2.10;;;5.80;99.90;;;;;;4990895;28;20324;-70
2022/12/27 11:12:58;;;;;;;5.63;2.33;;;5.90;99.90;;;;;;4991784;28;20203;-71
2022/12/27 11:15:27;;;;;;;6.97;2.90;;;5.90;99.90;;;;;;4987375;28;20242;-72
2022/12/27 11:17:58;;;;;;;6.37;2.47;;;5.90;99.90;;;;;;4984476;28;20634;-72
2022/12/27 11:20:29;;;;;;;3.40;1.63;;;5.90;99.90;;;;;;4991699;28;20288;-72
2022/12/27 11:23:01;;;;;;;6.37;2.13;;;5.90;99.90;;;;;;4990066;28;20648;-72
2022/12/27 11:25:29;;;;;;;3.90;1.87;;;5.90;99.90;;;;;;4990450;28;20289;-72
2022/12/27 11:28:00;;;;;;;4.60;1.90;;;5.90;99.90;;;;;;4987766;28;20294;-72
2022/12/27 11:30:30;;;;;;;3.27;1.97;;;5.90;99.90;;;;;;4982370;28;20234;-72
2022/12/27 11:33:03;;;;;;;4.73;1.83;;;5.90;99.90;;;;;;4990867;28;20549;-72
2022/12/27 11:35:30;;;;;;;3.83;2.13;;;5.90;99.90;;;;;;4990408;28;20731;-72
2022/12/27 11:37:57;;;;;;;2.77;2.07;;;5.90;99.90;;;;;;4991235;28;20760;-72
2022/12/27 11:40:29;;;;;;;5.07;2.10;;;5.90;99.90;;;;;;4991539;28;20289;-72
2022/12/27 11:43:04;;;;;;;4.00;2.17;;;6.00;99.90;;;;;;4991338;28;20242;-72
2022/12/27 11:45:38;;;;;;;5.60;1.90;;;6.00;99.90;;;;;;4991615;28;20302;-72
2022/12/27 11:48:18;;;;;;;3.30;1.90;;;6.00;99.90;;;;;;4990520;28;20284;-72
2022/12/27 11:50:56;;;;;;;4.63;2.10;;;6.00;99.90;;;;;;4991386;28;20285;-73
2022/12/27 11:54:00;;;;;;;4.40;1.70;;;6.00;99.90;;;;;;4991646;28;20285;-72
2022/12/27 11:56:29;;;;;;;5.73;1.90;;;6.00;99.90;;;;;;4991116;28;20202;-72
2022/12/27 11:59:25;;;;;;;3.20;2.10;;;6.00;99.90;;;;;;4990910;28;20301;-72
2022/12/27 12:02:26;;;;;;;4.20;2.10;;;6.00;99.90;;;;;;4988497;28;20206;-69
2022/12/27 12:05:47;;;;;;;7.37;2.00;;;6.00;99.90;;;;;;4987567;28;20284;-68
2022/12/27 12:08:52;;;;;;;6.47;3.07;;;6.00;99.90;;;;;;4930467;29;20386;-69
2022/12/27 12:11:31;;;;;;;5.60;2.43;;;6.10;99.90;;;;;;4985468;28;20775;-69
2022/12/27 12:14:28;;;;;;;5.03;1.97;;;6.10;99.90;;;;;;4990757;28;20288;-69
2022/12/27 12:17:15;;;;;;;6.73;2.63;;;6.10;99.90;;;;;;4990494;28;20296;-69
2022/12/27 12:20:17;;;;;;;4.20;2.60;;;6.10;99.90;;;;;;4990052;28;20738;-70
2022/12/27 12:23:03;;;;;;;4.27;2.50;;;6.10;99.90;;;;;;4990243;28;20838;-70
2022/12/27 12:25:59;;;;;;;4.50;2.03;;;6.10;99.90;;;;;;4990319;28;20238;-70
2022/12/27 12:28:59;;;;;;;4.33;2.37;;;6.10;99.90;;;;;;4990276;28;20289;-70
2022/12/27 12:31:45;;;;;;;6.70;2.07;;;6.10;99.90;;;;;;4990144;28;20198;-73
2022/12/27 12:34:26;;;;;;;40.27;6.67;;;6.20;99.90;;;;;;4990427;28;21140;-70
2022/12/27 12:37:12;;;;;;;6.67;3.17;;;6.30;99.90;;;;;;4988792;28;20296;-73
2022/12/27 12:40:02;;;;;;;9.50;2.40;;;6.50;99.90;;;;;;4990157;28;20301;-70
2022/12/27 12:42:37;;;;;;;6.60;2.50;;;6.60;99.90;;;;;;4990357;28;20281;-71
2022/12/27 12:45:24;;;;;;;4.77;2.40;;;6.70;99.90;;;;;;4989812;28;20807;-68
2022/12/27 12:48:11;;;;;;;5.00;2.63;;;6.80;99.90;;;;;;4989769;28;20630;-71
2022/12/27 12:51:01;;;;;;;4.87;2.23;;;6.80;99.90;;;;;;4988799;28;20744;-71
2022/12/27 12:53:52;;;;;;;6.00;2.43;;;7.00;99.90;;;;;;4989657;28;20645;-72
2022/12/27 12:56:42;;;;;;;4.97;2.37;;;7.00;99.90;;;;;;4989846;28;20386;-70
2022/12/27 12:59:25;;;;;;;2.93;1.90;;;7.10;99.90;;;;;;4989805;28;20748;-68
2022/12/27 13:02:03;;;;;;;5.63;2.47;;;7.10;99.90;;;;;;4989463;28;20206;-68
2022/12/27 13:04:42;;;;;;;5.90;2.20;;;7.10;99.90;;;;;;4989131;28;20850;-68
2022/12/27 13:07:31;;;;;;;5.50;1.70;;;7.20;99.90;;;;;;4989302;28;20321;-70
2022/12/27 13:10:24;;;;;;;4.47;1.80;;;7.10;99.90;;;;;;4989410;28;20289;-70
2022/12/27 13:12:57;;;;;;;6.23;2.07;;;7.10;99.90;;;;;;4989369;28;20636;-68
2022/12/27 13:15:33;;;;;;;3.57;1.60;;;7.10;99.90;;;;;;4987814;28;20214;-68
2022/12/27 13:18:14;;;;;;;4.33;1.90;;;7.10;99.90;;;;;;4987104;28;20304;-68
2022/12/27 13:20:53;;;;;;;3.33;1.80;;;7.10;99.90;;;;;;4987198;28;20198;-68
2022/12/27 13:23:32;;;;;;;3.20;1.77;;;7.00;99.90;;;;;;4987144;28;20228;-70
2022/12/27 13:26:20;;;;;;;4.17;2.00;;;7.00;99.90;;;;;;4987234;28;20301;-70
2022/12/27 13:29:05;;;;;;;5.67;1.73;;;6.90;99.90;;;;;;4986682;28;20198;-70
2022/12/27 13:31:44;;;;;;;1.87;1.67;;;6.80;99.90;;;;;;4986062;28;20195;-70
2022/12/27 13:34:24;;;;;;;5.57;2.10;;;6.80;99.90;;;;;;4986449;28;20195;-70
2022/12/27 13:37:07;;;;;;;3.30;2.37;;;6.90;99.90;;;;;;4987027;28;20281;-70
2022/12/27 13:39:43;;;;;;;4.87;2.10;;;6.80;99.90;;;;;;4987073;28;20321;-70
2022/12/27 13:42:46;;;;;;;3.13;1.87;;;6.80;99.90;;;;;;4986993;28;20305;-70
2022/12/27 13:45:33;;;;;;;6.07;1.90;;;6.80;99.90;;;;;;4982580;28;20304;-70
2022/12/27 13:48:16;;;;;;;1.60;1.50;;;6.80;99.90;;;;;;4986665;28;20222;-69
2022/12/27 13:51:10;;;;;;;5.93;2.00;;;6.80;99.90;;;;;;4986066;28;20277;-70
2022/12/27 13:54:07;;;;;;;3.23;1.87;;;6.80;99.90;;;;;;4975050;28;20195;-69
2022/12/27 13:56:48;;;;;;;6.00;2.50;;;6.80;99.90;;;;;;4986205;28;20198;-69
2022/12/27 13:59:52;;;;;;;5.13;1.97;;;6.80;99.90;;;;;;4967065;28;20198;-69
2022/12/27 14:02:44;;;;;;;3.87;1.97;;;6.70;99.90;;;;;;4966503;28;20278;-69
2022/12/27 14:05:55;;;;;;;7.73;2.07;;;6.70;99.90;;;;;;4973580;28;20209;-69
2022/12/27 14:08:32;;;;;;;3.50;2.37;;;6.70;99.90;;;;;;4972011;28;20195;-69
2022/12/27 14:11:00;;;;;;;3.73;2.10;;;6.50;99.90;;;;;;4974191;28;20238;-69
2022/12/27 14:13:33;;;;;;;5.20;2.47;;;6.40;99.90;;;;;;5005615;28;20241;-69
2022/12/27 14:16:48;;;;;;;4.60;2.17;;;6.40;99.90;;;;;;4996669;28;20216;-70
2022/12/27 14:19:41;;;;;;;6.47;1.93;;;6.20;99.90;;;;;;4925832;29;20204;-69
2022/12/27 14:22:38;;;;;;;6.47;1.90;;;6.20;99.90;;;;;;4926121;29;20623;-69
2022/12/27 14:25:51;;;;;;;5.37;1.90;;;6.10;99.90;;;;;;4962688;28;20241;-68
2022/12/27 14:28:51;;;;;;;2.93;1.93;;;6.10;99.90;;;;;;4985981;28;20767;-69
2022/12/27 14:31:49;;;;;;;3.17;1.50;;;6.00;99.90;;;;;;4955727;28;20268;-69
2022/12/27 14:34:50;;;;;;;5.00;2.17;;;6.00;99.90;;;;;;4986189;28;20293;-69
2022/12/27 14:37:39;;;;;;;5.50;2.20;;;6.00;99.90;;;;;;4982669;28;20218;-69
2022/12/27 14:40:35;;;;;;;2.87;1.90;;;5.90;99.90;;;;;;4988253;28;20301;-69
2022/12/27 14:43:48;;;;;;;4.10;1.90;;;5.90;99.90;;;;;;4987336;28;20268;-69
2022/12/27 14:46:40;;;;;;;4.13;1.97;;;5.80;99.90;;;;;;4930071;29;20315;-69
2022/12/27 14:49:39;;;;;;;3.50;1.87;;;5.80;99.90;;;;;;4988011;28;20735;-69
2022/12/27 14:52:41;;;;;;;2.17;1.40;;;5.80;99.90;;;;;;4987631;28;20859;-69
2022/12/27 14:55:48;;;;;;;2.03;1.60;;;5.70;99.90;;;;;;4990618;28;20308;-70
2022/12/27 14:58:40;;;;;;;2.07;1.60;;;5.70;99.90;;;;;;4920630;29;20216;-69
2022/12/27 15:01:17;;;;;;;4.70;1.77;;;5.70;99.90;;;;;;4930717;29;20208;-69
2022/12/27 15:03:57;;;;;;;3.40;1.90;;;5.60;99.90;;;;;;4955517;28;20226;-69
2022/12/27 15:06:58;;;;;;;4.93;1.40;;;5.60;99.90;;;;;;4985827;28;20233;-69
2022/12/27 15:09:35;;;;;;;2.63;1.57;;;5.60;99.90;;;;;;4982492;28;21196;-70
2022/12/27 15:12:14;;;;;;;2.77;1.67;;;5.60;99.90;;;;;;4986980;28;20243;-69
2022/12/27 15:15:08;;;;;;;3.93;1.80;;;5.60;99.90;;;;;;4989167;28;20560;-69